createdAt,value
2019-04-29T00:07:10.857Z,7.57
2019-04-29T00:08:50.274Z,7.44
2019-04-29T00:14:20.498Z,7.39
2019-04-29T00:17:39.771Z,7.33
2019-04-29T00:21:02.031Z,7.48
2019-04-29T00:23:00.592Z,7.55
2019-04-29T00:25:53.016Z,7.6
2019-04-29T00:27:33.225Z,7.7
2019-04-29T00:30:11.525Z,7.63
2019-04-29T00:34:44.005Z,8.17
2019-04-29T00:41:19.189Z,8
2019-04-29T00:44:29.103Z,7.89
2019-04-29T00:46:15.915Z,7.76
2019-04-29T00:52:05.303Z,7.55
2019-04-29T00:56:55.402Z,7.47
2019-04-29T01:14:14.600Z,6.99
2019-04-29T01:17:25.768Z,7.07
2019-04-29T01:18:18.097Z,7.05
2019-04-29T01:20:18.682Z,7.01
2019-04-29T01:21:16.971Z,6.91
2019-04-29T01:26:42.341Z,6.93
2019-04-29T01:27:37.605Z,6.91
2019-04-29T01:28:29.213Z,6.89
2019-04-29T01:30:29.043Z,6.93
2019-04-29T01:39:35.388Z,6.91
2019-04-29T01:40:30.727Z,6.96
2019-04-29T02:02:02.752Z,6.64
2019-04-29T02:05:11.099Z,6.53
2019-04-29T02:06:52.991Z,6.54
2019-04-29T02:07:37.152Z,6.53
2019-04-29T02:08:17.538Z,6.53
2019-04-29T02:08:57.947Z,6.53
2019-04-29T02:09:38.320Z,6.5
2019-04-29T02:10:18.752Z,6.48
2019-04-29T02:10:59.151Z,6.54
2019-04-29T02:11:43.406Z,6.48
2019-04-29T02:13:26.835Z,6.53
2019-04-29T02:20:02.034Z,6.46
2019-04-29T02:20:56.537Z,6.4
2019-04-29T02:22:38.349Z,6.32
2019-04-29T02:23:33.892Z,6.28
2019-04-29T02:24:21.044Z,6.27
2019-04-29T02:26:50.847Z,6.21
2019-04-29T02:30:07.085Z,6.25
2019-04-29T02:30:56.096Z,6.27
2019-04-29T02:32:51.771Z,6.28
2019-04-29T02:36:17.267Z,6.43
2019-04-29T02:37:17.236Z,6.48
2019-04-29T02:40:20.745Z,6.58
2019-04-29T02:41:12.058Z,6.5
2019-04-29T02:45:08.874Z,6.51
2019-04-29T02:46:05.123Z,6.45
2019-04-29T02:47:01.388Z,6.43
2019-04-29T02:47:52.449Z,6.46
2019-04-29T02:48:41.968Z,6.46
2019-04-29T02:49:31.136Z,6.42
2019-04-29T03:18:04.338Z,5.73
2019-04-29T03:19:00.130Z,5.67
2019-04-29T03:20:37.502Z,5.7
2019-04-29T03:22:16.938Z,5.7
2019-04-29T03:23:06.462Z,5.73
2019-04-29T03:23:46.723Z,5.63
2019-04-29T03:24:27.236Z,5.7
2019-04-29T03:26:33.116Z,5.6
2019-04-29T03:27:25.335Z,5.6
2019-04-29T03:29:40.482Z,5.7
2019-04-29T03:32:51.356Z,5.69
2019-04-29T03:34:27.356Z,5.74
2019-04-29T03:36:39.829Z,5.77
2019-04-29T03:37:31.570Z,5.69
2019-04-29T03:38:19.643Z,5.66
2019-04-29T03:42:07.173Z,5.87
2019-04-29T03:43:46.868Z,6.01
2019-04-29T03:45:27.569Z,6.1
2019-04-29T03:54:26.439Z,6.42
2019-04-29T03:55:13.245Z,6.42
2019-04-29T03:55:53.530Z,6.48
2019-04-29T03:56:33.925Z,6.48
2019-04-29T03:57:14.313Z,6.46
2019-04-29T04:04:59.466Z,6.13
2019-04-29T04:07:11.959Z,6.14
2019-04-29T04:08:02.199Z,6.14
2019-04-29T04:18:38.000Z,6.06
2019-04-29T04:19:27.021Z,6.16
2019-04-29T04:21:19.969Z,6.01
2019-04-29T04:22:18.651Z,6.05
2019-04-29T04:23:17.505Z,6.02
2019-04-29T04:24:15.989Z,6.06
2019-04-29T04:25:14.726Z,6.06
2019-04-29T04:26:13.457Z,5.99
2019-04-29T04:27:12.709Z,5.99
2019-04-29T04:28:09.917Z,5.92
2019-04-29T05:27:56.352Z,12.55
2019-04-29T05:45:46.057Z,16.01
2019-04-29T06:09:25.904Z,18.68
2019-04-29T06:10:08.978Z,18.79
2019-04-29T06:10:51.249Z,18.83
2019-04-29T06:11:49.683Z,18.91
2019-04-29T06:12:35.217Z,18.97
2019-04-29T06:15:54.224Z,19.39
2019-04-29T06:16:35.258Z,19.58
2019-04-29T06:17:15.891Z,19.58
2019-04-29T06:17:56.336Z,19.75
2019-04-29T06:18:36.741Z,19.85
2019-04-29T06:19:18.320Z,19.89
2019-04-29T06:19:58.873Z,19.94
2019-04-29T06:20:44.670Z,19.8
2019-04-29T06:30:06.023Z,19.86
2019-04-29T06:37:24.386Z,20.13
2019-04-29T06:38:17.328Z,20.16
2019-04-29T06:42:58.970Z,20.16
2019-04-29T06:45:00.720Z,20.15
2019-04-29T06:46:09.263Z,20.13
2019-04-29T06:53:59.954Z,20.57
2019-04-29T07:26:37.254Z,22.49
2019-04-29T07:52:51.446Z,22.78
2019-04-29T07:53:37.356Z,22.96
2019-04-29T07:54:15.851Z,22.93
2019-04-29T07:54:56.357Z,22.93
2019-04-29T07:55:38.893Z,22.89
2019-04-29T07:56:20.623Z,22.94
2019-04-29T07:57:01.421Z,23.03
2019-04-29T07:57:52.094Z,23.11
2019-04-29T07:58:38.967Z,23.03
2019-04-29T08:08:54.906Z,23.78
2019-04-29T08:09:35.379Z,23.82
2019-04-29T08:10:23.494Z,23.93
2019-04-29T08:11:04.053Z,23.79
2019-04-29T08:11:50.411Z,23.86
2019-04-29T08:12:36.379Z,23.78
2019-04-29T08:17:20.299Z,23.25
2019-04-29T08:18:06.554Z,23.35
2019-04-29T08:18:41.449Z,23.42
2019-04-29T08:19:24.496Z,23.44
2019-04-29T08:20:13.192Z,23.35
2019-04-29T08:25:21.633Z,24.04
2019-04-29T08:35:24.978Z,24.59
2019-04-29T08:37:51.425Z,24.8
2019-04-29T08:38:39.049Z,24.89
2019-04-29T08:40:16.170Z,25.02
2019-04-29T08:40:55.568Z,25.2
2019-04-29T08:41:38.304Z,25.24
2019-04-29T08:42:20.513Z,25.36
2019-04-29T08:43:02.849Z,25.42
2019-04-29T08:43:45.613Z,25.39
2019-04-29T08:44:28.119Z,25.31
2019-04-29T08:45:12.984Z,25.49
2019-04-29T08:52:57.292Z,26.2
2019-04-29T08:53:38.215Z,26.23
2019-04-29T08:54:20.157Z,26.38
2019-04-29T08:55:01.323Z,26.32
2019-04-29T08:55:41.798Z,26.35
2019-04-29T08:56:27.521Z,26.21
2019-04-29T08:58:21.101Z,26.2
2019-04-29T08:59:03.861Z,26.16
2019-04-29T08:59:46.047Z,26.21
2019-04-29T09:00:26.700Z,26.16
2019-04-29T09:01:10.555Z,26.12
2019-04-29T09:01:51.658Z,26.12
2019-04-29T09:02:35.532Z,25.91
2019-04-29T09:03:18.703Z,25.98
2019-04-29T09:05:34.721Z,26.21
2019-04-29T09:06:18.296Z,26.21
2019-04-29T09:07:11.936Z,26.19
2019-04-29T09:07:42.343Z,26.23
2019-04-29T09:08:28.730Z,26.31
2019-04-29T09:09:14.687Z,26.32
2019-04-29T09:09:55.981Z,26.12
2019-04-29T09:10:36.708Z,26.21
2019-04-29T09:11:17.898Z,26.24
2019-04-29T09:12:02.215Z,26.31
2019-04-29T09:16:41.663Z,26.57
2019-04-29T09:17:23.689Z,26.6
2019-04-29T09:18:03.740Z,26.57
2019-04-29T09:18:46.557Z,26.75
2019-04-29T09:19:43.794Z,26.93
2019-04-29T09:22:33.744Z,27.12
2019-04-29T09:23:14.171Z,26.96
2019-04-29T09:23:55.528Z,26.93
2019-04-29T09:24:36.847Z,26.68
2019-04-29T09:25:21.264Z,26.42
2019-04-29T09:26:02.676Z,26.36
2019-04-29T09:26:50.375Z,26.24
2019-04-29T09:27:32.520Z,26.31
2019-04-29T09:28:17.780Z,26.17
2019-04-29T09:28:54.611Z,25.81
2019-04-29T09:31:03.117Z,25.75
2019-04-29T09:32:00.719Z,25.82
2019-04-29T09:37:03.206Z,26.19
2019-04-29T09:37:47.334Z,26.34
2019-04-29T09:38:40.452Z,26.51
2019-04-29T09:39:22.340Z,26.54
2019-04-29T09:40:03.818Z,26.6
2019-04-29T09:40:46.396Z,26.66
2019-04-29T09:41:34.961Z,26.76
2019-04-29T09:42:12.926Z,26.91
2019-04-29T09:42:56.981Z,26.96
2019-04-29T09:43:35.694Z,27.09
2019-04-29T09:44:16.159Z,27.2
2019-04-29T09:44:56.605Z,27.11
2019-04-29T09:45:37.854Z,27.05
2019-04-29T09:46:22.940Z,26.86
2019-04-29T09:47:08.631Z,26.83
2019-04-29T09:47:50.149Z,26.73
2019-04-29T09:48:35.482Z,26.66
2019-04-29T09:49:18.533Z,26.53
2019-04-29T09:50:18.732Z,26.24
2019-04-29T09:51:17.463Z,26.09
2019-04-29T09:52:48.738Z,25.81
2019-04-29T09:53:28.539Z,25.89
2019-04-29T09:54:17.747Z,26
2019-04-29T09:55:05.747Z,26.09
2019-04-29T09:55:51.711Z,26.2
2019-04-29T09:56:37.349Z,26.34
2019-04-29T09:57:21.388Z,26.34
2019-04-29T09:58:06.070Z,26.5
2019-04-29T09:58:46.531Z,26.47
2019-04-29T09:59:28.963Z,26.46
2019-04-29T10:00:09.777Z,26.38
2019-04-29T10:00:58.461Z,26.2
2019-04-29T10:01:41.770Z,26.04
2019-04-29T10:02:26.195Z,26.04
2019-04-29T10:03:04.993Z,26.04
2019-04-29T10:03:46.662Z,25.94
2019-04-29T10:04:33.189Z,26.16
2019-04-29T10:05:17.119Z,26.19
2019-04-29T10:06:05.524Z,26.12
2019-04-29T10:11:56.288Z,25.45
2019-04-29T10:12:38.521Z,25.38
2019-04-29T10:13:19.525Z,25.12
2019-04-29T10:14:01.683Z,24.89
2019-04-29T10:14:43.130Z,24.92
2019-04-29T10:15:26.590Z,24.83
2019-04-29T10:25:55.170Z,25.29
2019-04-29T10:26:37.083Z,25.29
2019-04-29T10:27:19.194Z,25.26
2019-04-29T10:28:01.196Z,25.05
2019-04-29T10:28:41.810Z,24.87
2019-04-29T10:29:25.775Z,24.59
2019-04-29T11:06:18.002Z,25.36
2019-04-29T11:06:59.484Z,25.38
2019-04-29T11:07:42.868Z,25.39
2019-04-29T11:08:24.698Z,25.45
2019-04-29T11:09:05.431Z,25.48
2019-04-29T11:09:46.217Z,25.36
2019-04-29T11:10:29.730Z,25.09
2019-04-29T11:11:22.074Z,24.93
2019-04-29T11:11:51.556Z,24.99
2019-04-29T11:12:32.169Z,25.07
2019-04-29T11:13:14.595Z,25.2
2019-04-29T11:14:01.396Z,25.2
2019-04-29T11:14:39.365Z,25.3
2019-04-29T11:15:23.645Z,25.42
2019-04-29T11:16:05.761Z,25.63
2019-04-29T11:16:47.010Z,25.85
2019-04-29T11:17:28.347Z,25.97
2019-04-29T11:18:09.041Z,26.09
2019-04-29T11:18:54.948Z,26.19
2019-04-29T11:19:39.822Z,26.19
2019-04-29T11:20:19.603Z,26.16
2019-04-29T11:20:57.490Z,26.46
2019-04-29T11:22:18.349Z,26.68
2019-04-29T11:22:59.716Z,26.76
2019-04-29T11:23:40.138Z,26.79
2019-04-29T11:24:20.924Z,26.75
2019-04-29T11:25:05.963Z,26.65
2019-04-29T11:25:51.208Z,26.61
2019-04-29T11:26:28.295Z,26.61
2019-04-29T11:27:11.738Z,26.53
2019-04-29T11:27:49.281Z,26.44
2019-04-29T11:28:30.554Z,26.35
2019-04-29T11:29:12.497Z,26.21
2019-04-29T11:29:52.995Z,25.98
2019-04-29T11:30:34.732Z,25.93
2019-04-29T11:31:16.987Z,25.91
2019-04-29T11:31:55.852Z,25.81
2019-04-29T11:32:36.485Z,25.74
2019-04-29T11:33:17.374Z,25.64
2019-04-29T11:33:57.785Z,25.63
2019-04-29T11:34:38.332Z,25.41
2019-04-29T11:35:24.463Z,25.27
2019-04-29T11:36:05.955Z,25.38
2019-04-29T11:36:46.082Z,25.27
2019-04-29T11:37:27.482Z,25.26
2019-04-29T11:38:07.878Z,25.16
2019-04-29T11:38:49.273Z,25.08
2019-04-29T11:39:29.710Z,25.05
2019-04-29T11:40:10.298Z,24.94
2019-04-29T11:40:52.588Z,24.94
2019-04-29T11:42:14.707Z,24.66
2019-04-29T11:42:55.099Z,24.6
2019-04-29T11:43:35.574Z,24.53
2019-04-29T11:44:16.025Z,24.71
2019-04-29T11:44:57.050Z,24.63
2019-04-29T11:45:40.297Z,24.49
2019-04-29T11:46:20.983Z,24.3
2019-04-29T11:46:59.536Z,24.26
2019-04-29T11:47:40.226Z,24.3
2019-04-29T11:48:20.616Z,24.23
2019-04-29T11:49:01.867Z,24.15
2019-04-29T11:53:14.901Z,23.94
2019-04-29T11:54:00.604Z,24.12
2019-04-29T11:54:43.474Z,24.19
2019-04-29T11:55:27.502Z,24.41
2019-04-29T11:56:12.885Z,24.42
2019-04-29T11:56:53.246Z,24.53
2019-04-29T11:57:40.600Z,24.55
2019-04-29T11:58:16.983Z,24.56
2019-04-29T11:58:57.803Z,24.44
2019-04-29T11:59:39.884Z,24.41
2019-04-29T12:00:20.343Z,24.19
2019-04-29T12:01:03.837Z,24.16
2019-04-29T12:01:50.734Z,23.99
2019-04-29T12:02:44.001Z,23.87
2019-04-29T12:03:05.573Z,23.93
2019-04-29T12:03:51.278Z,23.84
2019-04-29T12:04:33.113Z,23.84
2019-04-29T12:05:11.016Z,23.9
2019-04-29T12:05:51.431Z,23.89
2019-04-29T12:06:35.405Z,23.87
2019-04-29T12:07:16.750Z,23.81
2019-04-29T12:08:03.889Z,23.86
2019-04-29T12:08:42.521Z,23.87
2019-04-29T12:09:30.335Z,23.81
2019-04-29T12:10:10.785Z,23.71
2019-04-29T12:11:37.212Z,23.6
2019-04-29T12:12:16.767Z,23.41
2019-04-29T12:12:56.820Z,23.54
2019-04-29T12:13:37.217Z,23.45
2019-04-29T12:14:17.626Z,23.5
2019-04-29T12:14:58.239Z,23.45
2019-04-29T12:15:38.738Z,23.31
2019-04-29T12:16:19.608Z,23.39
2019-04-29T12:16:59.683Z,23.35
2019-04-29T12:17:40.163Z,23.07
2019-04-29T12:18:22.572Z,23.07
2019-04-29T12:19:06.144Z,23.03
2019-04-29T12:19:46.354Z,23.01
2019-04-29T12:20:28.912Z,23.16
2019-04-29T12:21:09.392Z,23.15
2019-04-29T12:21:50.093Z,23.29
2019-04-29T12:22:31.185Z,23.42
2019-04-29T12:23:15.605Z,23.47
2019-04-29T12:23:58.085Z,23.67
2019-04-29T12:24:41.413Z,23.71
2019-04-29T12:28:58.103Z,23.96
2019-04-29T12:29:39.052Z,23.96
2019-04-29T12:30:19.498Z,24.05
2019-04-29T12:30:59.980Z,24.05
2019-04-29T12:31:40.596Z,24.04
2019-04-29T12:32:24.876Z,24.04
2019-04-29T12:33:04.487Z,24.06
2019-04-29T12:33:44.759Z,24.12
2019-04-29T12:34:26.807Z,24.19
2019-04-29T12:35:05.785Z,24.33
2019-04-29T12:35:51.843Z,24.26
2019-04-29T12:36:29.540Z,24.3
2019-04-29T12:37:15.786Z,24.48
2019-04-29T12:38:00.585Z,24.71
2019-04-29T12:38:39.886Z,24.84
2019-04-29T12:39:19.795Z,25.01
2019-04-29T12:39:59.800Z,25.16
2019-04-29T12:40:40.417Z,25.31
2019-04-29T12:41:29.551Z,25.39
2019-04-29T12:42:07.322Z,25.45
2019-04-29T12:42:50.821Z,25.44
2019-04-29T12:43:32.364Z,25.36
2019-04-29T12:44:13.160Z,25.35
2019-04-29T12:44:54.851Z,25.36
2019-04-29T12:45:35.030Z,25.38
2019-04-29T12:46:17.293Z,25.19
2019-04-29T12:47:00.479Z,25.09
2019-04-29T12:47:40.906Z,25.07
2019-04-29T12:48:25.395Z,25.04
2019-04-29T12:49:08.163Z,24.99
2019-04-29T12:49:48.909Z,24.94
2019-04-29T12:50:29.233Z,25.04
2019-04-29T12:51:11.835Z,24.93
2019-04-29T12:54:29.271Z,25.07
2019-04-29T12:55:29.341Z,25.16
2019-04-29T12:56:07.033Z,25.24
2019-04-29T12:56:47.622Z,25.22
2019-04-29T12:57:29.101Z,25.24
2019-04-29T12:58:13.412Z,25.26
2019-04-29T12:58:58.826Z,25.22
2019-04-29T12:59:36.914Z,25.26
2019-04-29T13:00:18.271Z,25.16
2019-04-29T13:01:02.785Z,25.19
2019-04-29T13:01:51.165Z,24.99
2019-04-29T13:02:26.353Z,24.84
2019-04-29T13:03:06.680Z,24.82
2019-04-29T13:03:47.159Z,24.67
2019-04-29T13:04:28.092Z,24.63
2019-04-29T13:05:13.702Z,24.39
2019-04-29T13:05:58.133Z,24.3
2019-04-29T13:06:39.768Z,24.24
2019-04-29T13:07:22.511Z,24.09
2019-04-29T13:08:03.099Z,23.96
2019-04-29T13:08:45.785Z,23.9
2019-04-29T13:09:27.681Z,23.81
2019-04-29T13:10:08.871Z,23.84
2019-04-29T13:10:50.418Z,23.89
2019-04-29T13:11:40.825Z,23.84
2019-04-29T13:12:19.278Z,23.86
2019-04-29T13:12:54.224Z,23.9
2019-04-29T13:13:34.604Z,23.86
2019-04-29T13:14:15.058Z,24.06
2019-04-29T13:15:02.789Z,24.02
2019-04-29T13:15:43.604Z,23.96
2019-04-29T13:16:23.766Z,23.97
2019-04-29T13:17:14.220Z,24.02
2019-04-29T13:17:44.593Z,24.04
2019-04-29T13:18:26.675Z,24.05
2019-04-29T13:19:11.809Z,24.12
2019-04-29T13:20:01.434Z,24.12
2019-04-29T13:20:34.584Z,23.97
2019-04-29T13:21:15.836Z,23.9
2019-04-29T13:21:56.322Z,23.84
2019-04-29T13:22:37.765Z,23.72
2019-04-29T13:23:33.070Z,23.52
2019-04-29T13:24:12.441Z,23.49
2019-04-29T13:24:42.565Z,23.52
2019-04-29T13:25:26.654Z,23.39
2019-04-29T13:26:07.945Z,23.34
2019-04-29T13:26:49.215Z,23.25
2019-04-29T13:27:29.704Z,23.04
2019-04-29T13:28:10.024Z,23.06
2019-04-29T13:29:00.114Z,22.96
2019-04-29T13:29:36.085Z,22.89
2019-04-29T13:30:16.141Z,22.89
2019-04-29T13:30:56.692Z,22.89
2019-04-29T13:31:38.323Z,23.09
2019-04-29T13:32:18.323Z,23.21
2019-04-29T13:33:01.058Z,23.26
2019-04-29T13:33:50.305Z,23.31
2019-04-29T13:34:30.869Z,23.09
2019-04-29T13:39:38.299Z,23.57
2019-04-29T13:40:03.920Z,23.59
2019-04-29T13:40:46.313Z,23.67
2019-04-29T13:41:30.245Z,23.69
2019-04-29T13:42:15.489Z,23.56
2019-04-29T13:42:54.613Z,23.67
2019-04-29T13:43:36.235Z,23.53
2019-04-29T13:44:19.614Z,23.57
2019-04-29T13:45:07.682Z,23.69
2019-04-29T13:45:44.584Z,23.68
2019-04-29T13:46:27.748Z,23.56
2019-04-29T13:47:08.300Z,23.38
2019-04-29T13:47:50.447Z,23.22
2019-04-29T13:48:33.560Z,23.23
2019-04-29T13:49:14.143Z,23.23
2019-04-29T13:49:55.035Z,23.32
2019-04-29T13:50:39.667Z,23.39
2019-04-29T13:51:34.398Z,23.19
2019-04-29T13:52:05.024Z,23.22
2019-04-29T13:52:45.082Z,23.26
2019-04-29T13:53:27.659Z,23.34
2019-04-29T13:54:09.248Z,23.26
2019-04-29T13:54:52.766Z,23.29
2019-04-29T13:55:48.164Z,23.35
2019-04-29T13:56:31.851Z,23.39
2019-04-29T13:56:56.760Z,23.42
2019-04-29T13:57:35.395Z,23.37
2019-04-29T13:58:22.064Z,23.15
2019-04-29T13:59:09.575Z,22.97
2019-04-29T13:59:49.221Z,22.84
2019-04-29T14:00:26.330Z,22.72
2019-04-29T14:01:20.287Z,22.66
2019-04-29T14:01:59.512Z,22.69
2019-04-29T14:02:31.546Z,22.72
2019-04-29T14:03:11.474Z,22.52
2019-04-29T14:03:51.616Z,22.48
2019-04-29T14:04:35.649Z,22.61
2019-04-29T14:05:16.104Z,22.74
2019-04-29T14:06:03.826Z,22.75
2019-04-29T14:06:55.629Z,22.76
2019-04-29T14:07:23.377Z,22.86
2019-04-29T14:08:04.443Z,22.88
2019-04-29T14:08:45.294Z,22.91
2019-04-29T14:09:27.464Z,22.93
2019-04-29T14:10:10.038Z,22.96
2019-04-29T14:10:54.647Z,22.91
2019-04-29T14:11:39.079Z,23.04
2019-04-29T14:12:46.966Z,22.97
2019-04-29T14:13:09.959Z,22.88
2019-04-29T14:13:48.234Z,22.96
2019-04-29T14:14:28.304Z,22.93
2019-04-29T14:15:07.083Z,22.96
2019-04-29T14:15:47.578Z,23.07
2019-04-29T14:16:29.049Z,23.07
2019-04-29T14:17:25.693Z,23.22
2019-04-29T14:17:57.032Z,23.14
2019-04-29T14:18:38.244Z,23.18
2019-04-29T14:19:27.654Z,23.16
2019-04-29T14:19:59.250Z,23.25
2019-04-29T14:20:39.704Z,23.15
2019-04-29T14:21:30.072Z,23.19
2019-04-29T14:22:21.337Z,23.19
2019-04-29T14:22:52.233Z,23.21
2019-04-29T14:23:34.648Z,23.22
2019-04-29T14:24:15.160Z,23.23
2019-04-29T14:24:55.481Z,23.18
2019-04-29T14:25:36.541Z,23.32
2019-04-29T14:26:17.868Z,23.32
2019-04-29T14:26:58.819Z,23.26
2019-04-29T14:27:44.616Z,23.29
2019-04-29T14:28:25.106Z,23.29
2019-04-29T14:29:05.509Z,23.23
2019-04-29T14:29:51.075Z,23.14
2019-04-29T14:31:10.386Z,23.23
2019-04-29T14:31:53.944Z,23.04
2019-04-29T14:32:34.782Z,23.03
2019-04-29T14:33:19.061Z,23.09
2019-04-29T14:34:01.299Z,23.14
2019-04-29T14:34:42.661Z,23.11
2019-04-29T14:35:23.312Z,23.11
2019-04-29T14:36:05.704Z,23.14
2019-04-29T14:36:49.171Z,23.18
2019-04-29T14:37:29.593Z,23.14
2019-04-29T14:38:09.968Z,23.06
2019-04-29T14:38:50.538Z,23.11
2019-04-29T14:39:36.969Z,23.01
2019-04-29T14:40:12.672Z,23.16
2019-04-29T14:40:54.813Z,23.09
2019-04-29T14:41:36.815Z,23.06
2019-04-29T14:42:17.236Z,23.14
2019-04-29T14:42:58.352Z,23.07
2019-04-29T14:43:39.979Z,23.19
2019-04-29T14:44:20.419Z,23.29
2019-04-29T14:45:00.885Z,23.18
2019-04-29T14:45:41.303Z,23.12
2019-04-29T14:46:21.755Z,23.14
2019-04-29T14:47:02.164Z,23.04
2019-04-29T14:47:42.538Z,23.15
2019-04-29T14:48:26.738Z,23.12
2019-04-29T14:49:48.468Z,23.04
2019-04-29T14:50:28.893Z,23.09
2019-04-29T14:51:09.352Z,22.97
2019-04-29T14:52:30.183Z,22.88
2019-04-29T14:53:12.235Z,22.94
2019-04-29T14:53:56.427Z,22.93
2019-04-29T14:54:36.787Z,22.88
2019-04-29T14:55:19.834Z,22.91
2019-04-29T14:55:55.973Z,22.91
2019-04-29T14:56:41.110Z,22.82
2019-04-29T14:57:22.573Z,22.86
2019-04-29T15:00:19.677Z,22.94
2019-04-29T15:01:00.308Z,22.91
2019-04-29T15:01:41.565Z,22.76
2019-04-29T15:02:22.158Z,22.59
2019-04-29T15:03:04.222Z,22.49
2019-04-29T15:03:46.581Z,22.41
2019-04-29T15:04:25.483Z,22.46
2019-04-29T15:05:07.162Z,22.42
2019-04-29T15:05:45.976Z,22.42
2019-04-29T15:06:28.669Z,22.46
2019-04-29T15:07:08.753Z,22.49
2019-04-29T15:07:49.416Z,22.39
2019-04-29T15:08:31.917Z,22.54
2019-04-29T15:09:16.414Z,22.49
2019-04-29T15:09:51.255Z,22.41
2019-04-29T15:10:32.870Z,22.45
2019-04-29T15:11:11.730Z,22.36
2019-04-29T15:11:52.075Z,22.3
2019-04-29T15:12:32.493Z,22.23
2019-04-29T15:13:20.890Z,22.14
2019-04-29T15:13:54.404Z,21.9
2019-04-29T15:14:34.586Z,21.99
2019-04-29T15:15:15.070Z,22.02
2019-04-29T15:16:04.119Z,21.98
2019-04-29T15:16:35.940Z,21.94
2019-04-29T15:17:16.348Z,22.02
2019-04-29T15:17:56.723Z,21.99
2019-04-29T15:18:47.105Z,21.96
2019-04-29T15:19:19.318Z,21.94
2019-04-29T15:19:59.609Z,21.99
2019-04-29T15:20:39.983Z,21.91
2019-04-29T15:21:31.404Z,21.94
2019-04-29T15:22:00.925Z,21.94
2019-04-29T15:22:41.227Z,22.02
2019-04-29T15:23:28.566Z,22.08
2019-04-29T15:24:02.121Z,22.12
2019-04-29T15:24:44.470Z,22.11
2019-04-29T15:25:25.406Z,22.01
2019-04-29T15:26:05.783Z,21.98
2019-04-29T15:26:46.271Z,21.86
2019-04-29T15:27:26.627Z,21.85
2019-04-29T15:28:07.047Z,21.83
2019-04-29T15:28:47.493Z,21.83
2019-04-29T15:29:27.964Z,21.81
2019-04-29T15:30:08.332Z,21.73
2019-04-29T15:30:48.719Z,21.73
2019-04-29T15:31:30.776Z,21.79
2019-04-29T15:32:12.102Z,21.74
2019-04-29T15:32:52.973Z,21.82
2019-04-29T15:33:34.642Z,21.83
2019-04-29T15:34:14.534Z,21.67
2019-04-29T15:34:53.834Z,21.79
2019-04-29T15:35:34.502Z,21.61
2019-04-29T15:36:14.824Z,21.67
2019-04-29T15:36:58.909Z,21.56
2019-04-29T15:37:39.323Z,21.46
2019-04-29T15:38:19.898Z,21.33
2019-04-29T15:39:09.216Z,21.4
2019-04-29T15:39:45.939Z,21.31
2019-04-29T15:40:25.980Z,21.28
2019-04-29T15:41:05.240Z,21.33
2019-04-29T15:41:44.099Z,21.34
2019-04-29T15:43:04.960Z,21.37
2019-04-29T15:43:47.575Z,21.42
2019-04-29T15:44:25.823Z,21.3
2019-04-29T15:45:06.120Z,21.28
2019-04-29T15:45:46.523Z,21.3
2019-04-29T15:46:29.632Z,21.28
2019-04-29T15:47:09.362Z,21.26
2019-04-29T15:47:52.515Z,21.22
2019-04-29T15:48:34.808Z,21.24
2019-04-29T15:49:15.352Z,21.15
2019-04-29T15:50:00.602Z,21.19
2019-04-29T15:50:37.010Z,21.15
2019-04-29T15:51:16.872Z,21.05
2019-04-29T15:51:59.090Z,21.13
2019-04-29T15:52:39.460Z,21.11
2019-04-29T15:53:20.072Z,21.01
2019-04-29T15:54:00.383Z,20.98
2019-04-29T15:54:40.811Z,21.01
2019-04-29T15:55:21.267Z,21.08
2019-04-29T15:56:06.773Z,20.98
2019-04-29T15:56:42.572Z,20.97
2019-04-29T15:57:23.254Z,20.98
2019-04-29T15:58:03.901Z,21.01
2019-04-29T15:58:44.127Z,21.01
2019-04-29T15:59:25.671Z,21.06
2019-04-29T16:00:21.053Z,21.06
2019-04-29T16:00:48.116Z,21.03
2019-04-29T16:01:30.273Z,21.08
2019-04-29T16:02:09.412Z,21.15
2019-04-29T16:02:49.702Z,21
2019-04-29T16:03:30.052Z,21
2019-04-29T16:04:10.378Z,20.96
2019-04-29T16:04:50.822Z,20.88
2019-04-29T16:05:31.332Z,20.93
2019-04-29T16:06:20.904Z,20.96
2019-04-29T16:06:53.364Z,20.88
2019-04-29T16:07:33.766Z,21.01
2019-04-29T16:08:14.299Z,20.93
2019-04-29T16:08:58.991Z,20.82
2019-04-29T16:09:50.993Z,20.88
2019-04-29T16:10:20.401Z,20.82
2019-04-29T16:10:59.388Z,20.88
2019-04-29T16:11:39.728Z,20.75
2019-04-29T16:12:20.181Z,20.78
2019-04-29T16:13:00.638Z,20.75
2019-04-29T16:13:42.044Z,20.61
2019-04-29T16:14:24.273Z,20.61
2019-04-29T16:15:08.435Z,20.6
2019-04-29T16:15:49.842Z,20.53
2019-04-29T16:16:30.159Z,20.5
2019-04-29T16:17:10.771Z,20.41
2019-04-29T16:17:51.090Z,20.5
2019-04-29T16:18:31.504Z,20.44
2019-04-29T16:19:13.969Z,20.48
2019-04-29T16:19:54.355Z,20.42
2019-04-29T16:20:34.738Z,20.44
2019-04-29T16:21:15.186Z,20.51
2019-04-29T16:21:56.866Z,20.41
2019-04-29T16:22:39.162Z,20.48
2019-04-29T16:23:18.044Z,20.54
2019-04-29T16:23:59.409Z,20.5
2019-04-29T16:24:39.847Z,20.48
2019-04-29T16:25:20.222Z,20.53
2019-04-29T16:26:00.626Z,20.64
2019-04-29T16:26:41.004Z,20.57
2019-04-29T16:27:21.412Z,20.57
2019-04-29T16:28:01.828Z,20.57
2019-04-29T16:28:43.175Z,20.58
2019-04-29T16:29:24.166Z,20.63
2019-04-29T16:30:04.629Z,20.64
2019-04-29T16:30:45.035Z,20.66
2019-04-29T16:31:25.367Z,20.61
2019-04-29T17:12:44.437Z,18.36
2019-04-29T17:13:27.523Z,18.36
2019-04-29T17:14:12.668Z,18.36
2019-04-29T17:15:03.272Z,18.41
2019-04-29T17:16:11.577Z,18.34
2019-04-29T17:16:52.242Z,18.29
2019-04-29T17:17:32.560Z,18.28
2019-04-29T17:18:13.039Z,18.32
2019-04-29T17:18:53.640Z,18.29
2019-04-29T17:19:33.929Z,18.26
2019-04-29T17:20:14.491Z,18.34
2019-04-29T17:21:04.483Z,18.32
2019-04-29T17:21:35.417Z,18.35
2019-04-29T17:22:25.221Z,18.39
2019-04-29T17:22:56.211Z,18.41
2019-04-29T17:23:36.655Z,18.47
2019-04-29T17:24:16.999Z,18.44
2019-04-29T17:24:59.600Z,18.47
2019-04-29T17:25:41.068Z,18.44
2019-04-29T17:26:23.185Z,18.47
2019-04-29T17:27:05.301Z,18.47
2019-04-29T17:27:45.723Z,18.51
2019-04-29T17:28:29.289Z,18.57
2019-04-29T17:29:26.889Z,18.57
2019-04-29T17:29:55.350Z,18.54
2019-04-29T17:30:30.407Z,18.54
2019-04-29T17:31:12.773Z,18.62
2019-04-29T17:31:57.007Z,18.6
2019-04-29T17:32:41.842Z,18.64
2019-04-29T17:33:25.682Z,18.65
2019-04-29T17:33:56.425Z,18.65
2019-04-29T17:39:40.156Z,18.71
2019-04-29T17:41:47.048Z,18.6
2019-04-29T17:42:27.391Z,18.6
2019-04-29T17:43:07.847Z,18.65
2019-04-29T17:43:48.224Z,18.64
2019-04-29T17:44:28.611Z,18.62
2019-04-29T17:45:10.892Z,18.65
2019-04-29T17:45:49.882Z,18.62
2019-04-29T17:46:30.183Z,18.62
2019-04-29T17:47:11.301Z,18.62
2019-04-29T17:47:51.249Z,18.53
2019-04-29T17:48:32.041Z,18.5
2019-04-29T17:49:12.369Z,18.49
2019-04-29T17:49:52.688Z,18.39
2019-04-29T17:50:33.225Z,18.38
2019-04-29T17:51:13.493Z,18.34
2019-04-29T17:51:56.113Z,18.29
2019-04-29T17:53:17.400Z,18.36
2019-04-29T17:53:56.270Z,18.36
2019-04-29T17:54:36.569Z,18.54
2019-04-29T17:55:17.370Z,18.5
2019-04-29T17:55:57.933Z,18.47
2019-04-29T17:56:38.380Z,18.5
2019-04-29T17:57:27.991Z,18.35
2019-04-29T17:57:59.362Z,18.34
2019-04-29T17:58:39.805Z,18.41
2019-04-29T17:59:22.705Z,18.32
2019-04-29T18:00:04.931Z,18.32
2019-04-29T18:00:55.404Z,18.36
2019-04-29T18:01:25.990Z,18.23
2019-04-29T18:02:05.535Z,18.29
2019-04-29T18:02:45.984Z,18.25
2019-04-29T18:03:26.439Z,18.28
2019-04-29T18:04:06.833Z,18.29
2019-04-29T18:04:49.615Z,18.2
2019-04-29T18:05:32.864Z,18.25
2019-04-29T18:06:08.486Z,18.14
2019-04-29T18:06:49.070Z,18.28
2019-04-29T18:07:29.431Z,18.17
2019-04-29T18:08:09.880Z,18.19
2019-04-29T18:08:50.288Z,18.17
2019-04-29T18:09:31.136Z,18.13
2019-04-29T18:10:11.588Z,18.1
2019-04-29T18:10:52.021Z,18.01
2019-04-29T18:11:32.428Z,17.95
2019-04-29T18:12:14.887Z,17.95
2019-04-29T18:12:54.965Z,17.89
2019-04-29T18:13:35.337Z,17.89
2019-04-29T18:14:55.762Z,17.81
2019-04-29T18:15:47.122Z,17.81
2019-04-29T18:16:18.834Z,17.81
2019-04-29T18:16:57.637Z,17.66
2019-04-29T18:17:38.021Z,17.76
2019-04-29T18:19:52.893Z,17.54
2019-04-29T18:20:44.769Z,17.53
2019-04-29T18:21:25.071Z,17.57
2019-04-29T18:22:07.304Z,17.57
2019-04-29T18:22:46.355Z,17.46
2019-04-29T18:23:26.777Z,17.49
2019-04-29T18:24:07.181Z,17.46
2019-04-29T18:24:48.663Z,17.43
2019-04-29T18:25:30.901Z,17.43
2019-04-29T18:26:11.251Z,17.38
2019-04-29T18:26:52.819Z,17.38
2019-04-29T18:27:34.430Z,17.33
2019-04-29T18:28:13.097Z,17.32
2019-04-29T18:28:56.757Z,17.3